createdAt,value
2023-05-19T00:02:06.071Z,100826.59
2023-05-19T00:05:10.461Z,100822.12
2023-05-19T00:08:19.937Z,100819.91
2023-05-19T00:11:23.014Z,100823.75
2023-05-19T00:14:25.831Z,100821.34
2023-05-19T00:17:28.980Z,100817.28
2023-05-19T00:20:31.748Z,100818.00
2023-05-19T00:23:34.703Z,100812.06
2023-05-19T00:26:37.280Z,100807.03
2023-05-19T00:29:40.433Z,100805.38
2023-05-19T00:32:43.985Z,100809.97
2023-05-19T00:35:46.662Z,100802.44
2023-05-19T00:38:51.175Z,100811.19
2023-05-19T00:41:53.906Z,100815.69
2023-05-19T00:44:56.345Z,100827.03
2023-05-19T00:47:59.108Z,100821.19
2023-05-19T00:51:04.747Z,100812.56
2023-05-19T00:54:08.646Z,100820.06
2023-05-19T00:57:12.579Z,100829.09
2023-05-19T01:00:18.389Z,100827.66
2023-05-19T01:03:21.487Z,100831.81
2023-05-19T01:06:25.688Z,100822.81
2023-05-19T01:09:28.482Z,100825.41
2023-05-19T01:12:31.300Z,100830.31
2023-05-19T01:15:45.982Z,100828.62
2023-05-19T01:19:03.960Z,100833.34
2023-05-19T01:22:33.693Z,100827.44
2023-05-19T01:25:51.749Z,100829.38
2023-05-19T01:29:17.322Z,100821.47
2023-05-19T01:32:21.276Z,100815.63
2023-05-19T01:35:26.277Z,100810.41
2023-05-19T01:38:30.337Z,100802.06
2023-05-19T01:41:34.659Z,100809.78
2023-05-19T01:44:38.062Z,100805.56
2023-05-19T01:47:43.887Z,100798.59
2023-05-19T01:50:47.166Z,100794.25
2023-05-19T01:53:51.399Z,100802.50
2023-05-19T01:56:58.052Z,100801.47
2023-05-19T02:00:22.368Z,100798.12
2023-05-19T02:03:43.894Z,100810.31
2023-05-19T02:07:09.821Z,100810.50
2023-05-19T02:10:23.015Z,100812.28
2023-05-19T02:13:31.686Z,100802.59
2023-05-19T02:16:36.796Z,100796.28
2023-05-19T02:19:42.231Z,100802.94
2023-05-19T02:22:45.959Z,100794.78
2023-05-19T02:25:49.249Z,100789.47
2023-05-19T02:28:51.940Z,100787.41
2023-05-19T02:31:54.615Z,100785.31
2023-05-19T02:34:57.355Z,100791.16
2023-05-19T02:37:59.898Z,100805.53
2023-05-19T02:41:03.451Z,100810.56
2023-05-19T02:44:06.578Z,100814.00
2023-05-19T02:47:09.385Z,100816.50
2023-05-19T02:50:11.864Z,100816.41
2023-05-19T02:53:14.622Z,100820.59
2023-05-19T02:56:17.090Z,100826.66
2023-05-19T02:59:20.096Z,100831.56
2023-05-19T03:02:22.479Z,100833.09
2023-05-19T03:05:25.177Z,100829.59
2023-05-19T03:08:28.249Z,100815.38
2023-05-19T03:11:31.067Z,100815.22
2023-05-19T03:14:34.818Z,100822.94
2023-05-19T03:17:37.829Z,100829.47
2023-05-19T03:20:42.441Z,100833.56
2023-05-19T03:23:45.060Z,100845.38
2023-05-19T03:26:47.956Z,100853.00
2023-05-19T03:29:53.852Z,100846.53
2023-05-19T03:32:56.952Z,100834.94
2023-05-19T03:35:59.909Z,100837.37
2023-05-19T03:39:07.030Z,100842.16
2023-05-19T03:42:10.272Z,100834.22
2023-05-19T03:45:12.959Z,100838.09
2023-05-19T03:48:17.082Z,100828.19
2023-05-19T03:51:21.904Z,100830.97
2023-05-19T03:54:26.274Z,100826.91
2023-05-19T03:57:29.492Z,100837.75
2023-05-19T04:00:32.363Z,100832.75
2023-05-19T04:03:37.250Z,100826.97
2023-05-19T04:06:41.914Z,100828.97
2023-05-19T04:09:45.222Z,100836.13
2023-05-19T04:12:48.176Z,100840.94
2023-05-19T04:15:54.386Z,100839.34
2023-05-19T04:18:57.066Z,100840.66
2023-05-19T04:22:00.303Z,100838.50
2023-05-19T04:25:04.600Z,100839.94
2023-05-19T04:28:07.761Z,100833.44
2023-05-19T04:31:12.805Z,100840.72
2023-05-19T04:34:15.985Z,100841.13
2023-05-19T04:37:20.073Z,100836.28
2023-05-19T04:40:25.925Z,100831.97
2023-05-19T04:43:31.681Z,100834.78
2023-05-19T04:46:36.181Z,100836.69
2023-05-19T04:49:39.185Z,100827.81
2023-05-19T04:52:42.678Z,100829.53
2023-05-19T04:55:47.632Z,100820.03
2023-05-19T04:58:51.088Z,100819.94
2023-05-19T05:01:53.686Z,100834.59
2023-05-19T05:04:56.894Z,100842.44
2023-05-19T05:08:03.419Z,100848.06
2023-05-19T05:11:08.012Z,100842.72
2023-05-19T05:14:11.372Z,100845.12
2023-05-19T05:17:17.400Z,100838.88
2023-05-19T05:20:20.538Z,100848.59
2023-05-19T05:23:23.945Z,100858.09
2023-05-19T05:26:30.986Z,100853.16
2023-05-19T05:29:35.327Z,100851.38
2023-05-19T05:32:38.847Z,100859.28
2023-05-19T05:35:43.782Z,100859.69
2023-05-19T05:38:54.258Z,100847.44
2023-05-19T05:41:58.090Z,100864.22
2023-05-19T05:45:00.768Z,100866.25
2023-05-19T05:48:07.473Z,100851.91
2023-05-19T05:51:10.433Z,100855.25
2023-05-19T05:54:14.498Z,100866.12
2023-05-19T05:57:17.406Z,100875.19
2023-05-19T06:00:22.379Z,100870.31
2023-05-19T06:03:26.075Z,100867.09
2023-05-19T06:06:29.073Z,100861.56
2023-05-19T06:09:32.985Z,100854.53
2023-05-19T06:12:42.138Z,100857.97
2023-05-19T06:15:45.122Z,100852.03
2023-05-19T06:18:49.426Z,100859.47
2023-05-19T06:21:52.569Z,100855.56
2023-05-19T06:24:55.252Z,100855.06
2023-05-19T06:27:58.138Z,100865.31
2023-05-19T06:31:03.950Z,100854.75
2023-05-19T06:34:10.478Z,100858.06
2023-05-19T06:37:19.666Z,100861.75
2023-05-19T06:40:23.364Z,100858.78
2023-05-19T06:43:28.920Z,100863.53
2023-05-19T06:46:32.030Z,100864.97
2023-05-19T06:49:34.551Z,100874.03
2023-05-19T06:52:37.764Z,100876.91
2023-05-19T06:55:50.694Z,100882.06
2023-05-19T06:59:01.902Z,100886.38
2023-05-19T07:02:05.137Z,100886.16
2023-05-19T07:05:09.363Z,100877.53
2023-05-19T07:08:12.092Z,100881.88
2023-05-19T07:11:15.425Z,100875.31
2023-05-19T07:14:27.304Z,100876.69
2023-05-19T07:17:30.441Z,100874.75
2023-05-19T07:20:34.543Z,100876.47
2023-05-19T07:23:37.490Z,100881.41
2023-05-19T07:26:40.653Z,100877.22
2023-05-19T07:29:52.051Z,100874.88
2023-05-19T07:32:56.315Z,100874.75
2023-05-19T07:35:59.240Z,100873.50
2023-05-19T07:39:01.905Z,100873.72
2023-05-19T07:42:05.081Z,100869.03
2023-05-19T07:45:08.062Z,100874.69
2023-05-19T07:48:11.099Z,100862.44
2023-05-19T07:51:13.996Z,100865.66
2023-05-19T07:54:17.090Z,100862.25
2023-05-19T07:57:23.000Z,100864.59
2023-05-19T08:00:26.357Z,100867.16
2023-05-19T08:03:30.949Z,100867.34
2023-05-19T08:06:33.708Z,100868.34
2023-05-19T08:09:36.626Z,100864.50
2023-05-19T08:12:39.093Z,100851.59
2023-05-19T08:15:42.851Z,100857.34
2023-05-19T08:18:45.403Z,100850.59
2023-05-19T08:21:48.433Z,100855.03
2023-05-19T08:24:51.891Z,100851.47
2023-05-19T08:27:54.669Z,100839.34
2023-05-19T08:30:57.195Z,100834.84
2023-05-19T08:33:59.919Z,100840.28
2023-05-19T08:37:03.235Z,100833.44
2023-05-19T08:40:07.735Z,100838.69
2023-05-19T08:43:11.343Z,100835.66
2023-05-19T08:46:16.422Z,100830.25
2023-05-19T08:49:25.578Z,100841.47
2023-05-19T08:52:28.448Z,100850.63
2023-05-19T08:55:57.678Z,100854.19
2023-05-19T08:59:04.705Z,100854.34
2023-05-19T09:02:11.256Z,100860.06
2023-05-19T09:05:16.020Z,100859.38
2023-05-19T09:08:18.681Z,100859.25
2023-05-19T09:11:22.784Z,100859.25
2023-05-19T09:14:25.468Z,100852.91
2023-05-19T09:17:28.197Z,100852.78
2023-05-19T09:20:31.059Z,100847.63
2023-05-19T09:23:34.220Z,100838.38
2023-05-19T09:26:41.494Z,100834.25
2023-05-19T09:29:44.331Z,100819.00
2023-05-19T09:32:48.132Z,100819.16
2023-05-19T09:35:54.311Z,100816.09
2023-05-19T09:38:57.115Z,100816.03
2023-05-19T09:42:04.895Z,100817.72
2023-05-19T09:45:09.351Z,100822.28
2023-05-19T09:48:12.779Z,100810.09
2023-05-19T09:51:15.287Z,100810.00
2023-05-19T09:54:20.531Z,100807.72
2023-05-19T09:57:29.832Z,100808.44
2023-05-19T10:00:32.939Z,100806.16
2023-05-19T10:03:36.938Z,100808.03
2023-05-19T10:06:40.882Z,100799.47
2023-05-19T10:09:44.936Z,100796.44
2023-05-19T10:12:48.969Z,100806.44
2023-05-19T10:19:01.234Z,100801.19
2023-05-19T10:22:04.392Z,100789.66
2023-05-19T10:25:08.605Z,100787.31
2023-05-19T10:28:15.182Z,100772.59
2023-05-19T10:31:21.602Z,100773.69
2023-05-19T10:34:24.258Z,100771.69
2023-05-19T10:37:41.876Z,100761.72
2023-05-19T10:41:07.632Z,100755.78
2023-05-19T10:44:23.519Z,100760.13
2023-05-19T10:47:26.840Z,100758.50
2023-05-19T10:50:37.965Z,100750.97
2023-05-19T10:53:46.425Z,100741.41
2023-05-19T10:56:49.086Z,100742.88
2023-05-19T10:59:51.802Z,100742.19
2023-05-19T11:02:57.621Z,100731.59
2023-05-19T11:06:28.546Z,100726.19
2023-05-19T11:09:39.864Z,100726.44
2023-05-19T11:12:46.026Z,100732.78
2023-05-19T11:15:52.003Z,100722.13
2023-05-19T11:18:56.466Z,100731.19
2023-05-19T11:22:12.561Z,100733.72
2023-05-19T11:25:38.316Z,100734.38
2023-05-19T11:28:44.474Z,100736.75
2023-05-19T11:31:48.798Z,100720.50
2023-05-19T11:34:51.586Z,100727.50
2023-05-19T11:37:57.669Z,100722.16
2023-05-19T11:41:00.824Z,100720.78
2023-05-19T11:44:03.717Z,100723.28
2023-05-19T11:47:06.776Z,100706.00
2023-05-19T11:50:11.712Z,100711.78
2023-05-19T11:53:15.461Z,100703.56
2023-05-19T11:56:18.348Z,100711.25
2023-05-19T11:59:30.449Z,100706.84
2023-05-19T12:02:36.427Z,100694.84
2023-05-19T12:05:48.396Z,100700.78
2023-05-19T12:08:52.253Z,100700.34
2023-05-19T12:11:55.570Z,100688.41
2023-05-19T12:14:58.185Z,100694.09
2023-05-19T12:18:02.577Z,100691.44
2023-05-19T12:21:06.023Z,100688.16
2023-05-19T12:24:09.273Z,100693.31
2023-05-19T12:27:20.448Z,100689.28
2023-05-19T12:30:30.088Z,100691.19
2023-05-19T12:33:35.477Z,100688.34
2023-05-19T12:36:38.830Z,100682.06
2023-05-19T12:39:42.973Z,100679.47
2023-05-19T12:42:46.608Z,100684.03
2023-05-19T12:45:49.676Z,100681.09
2023-05-19T12:48:52.560Z,100674.44
2023-05-19T12:51:55.030Z,100677.16
2023-05-19T12:55:07.958Z,100672.78
2023-05-19T12:58:12.010Z,100663.47
2023-05-19T13:01:19.853Z,100666.44
2023-05-19T13:04:22.460Z,100669.84
2023-05-19T13:07:28.149Z,100672.03
2023-05-19T13:10:32.112Z,100666.25
2023-05-19T13:13:35.044Z,100662.69
2023-05-19T13:16:37.543Z,100658.34
2023-05-19T13:19:40.673Z,100656.50
2023-05-19T13:22:43.510Z,100661.13
2023-05-19T13:25:46.809Z,100668.09
2023-05-19T13:28:52.276Z,100654.69
2023-05-19T13:31:55.568Z,100648.50
2023-05-19T13:34:58.709Z,100651.19
2023-05-19T13:38:11.204Z,100636.72
2023-05-19T13:41:15.935Z,100637.09
2023-05-19T13:44:19.739Z,100631.22
2023-05-19T13:47:23.865Z,100624.03
2023-05-19T13:50:26.773Z,100624.72
2023-05-19T13:53:31.212Z,100627.06
2023-05-19T13:56:34.019Z,100629.66
2023-05-19T13:59:43.117Z,100630.13
2023-05-19T14:02:58.372Z,100630.44
2023-05-19T14:06:01.235Z,100636.41
2023-05-19T14:09:04.170Z,100646.69
2023-05-19T14:12:07.330Z,100668.63
2023-05-19T14:15:11.456Z,100689.81
2023-05-19T14:18:14.609Z,100679.28
2023-05-19T14:21:17.035Z,100688.41
2023-05-19T14:24:20.221Z,100683.66
2023-05-19T14:27:23.052Z,100678.16
2023-05-19T14:30:25.879Z,100676.56
2023-05-19T14:33:29.725Z,100676.91
2023-05-19T14:36:35.598Z,100668.19
2023-05-19T14:39:45.630Z,100660.34
2023-05-19T14:42:50.658Z,100655.66
2023-05-19T14:45:53.223Z,100653.13
2023-05-19T14:48:56.094Z,100650.94
2023-05-19T14:51:58.719Z,100653.34
2023-05-19T14:55:01.493Z,100663.06
2023-05-19T14:58:07.894Z,100660.66
2023-05-19T15:01:19.054Z,100663.44
2023-05-19T15:04:21.776Z,100674.72
2023-05-19T15:07:24.745Z,100655.97
2023-05-19T15:10:27.113Z,100646.56
2023-05-19T15:13:32.697Z,100642.53
2023-05-19T15:16:38.026Z,100640.50
2023-05-19T15:19:42.819Z,100642.16
2023-05-19T15:22:45.342Z,100631.91
2023-05-19T15:25:48.129Z,100635.09
2023-05-19T15:31:56.191Z,100635.03
2023-05-19T15:34:58.661Z,100635.62
2023-05-19T15:38:06.163Z,100639.00
2023-05-19T15:41:09.149Z,100634.66
2023-05-19T15:44:11.884Z,100632.75
2023-05-19T15:47:14.360Z,100628.34
2023-05-19T15:50:17.149Z,100628.97
2023-05-19T15:53:20.341Z,100623.53
2023-05-19T15:56:23.008Z,100630.47
2023-05-19T15:59:25.510Z,100629.63
2023-05-19T16:02:32.306Z,100627.56
2023-05-19T16:05:35.181Z,100626.78
2023-05-19T16:08:38.091Z,100625.62
2023-05-19T16:11:40.876Z,100620.78
2023-05-19T16:14:43.257Z,100628.81
2023-05-19T16:17:48.487Z,100627.13
2023-05-19T16:20:51.445Z,100635.09
2023-05-19T16:23:54.269Z,100634.44
2023-05-19T16:26:56.700Z,100639.44
2023-05-19T16:30:03.376Z,100641.53
2023-05-19T16:33:09.465Z,100646.66
2023-05-19T16:36:12.552Z,100640.25
2023-05-19T16:39:15.435Z,100635.75
2023-05-19T16:42:18.188Z,100625.03
2023-05-19T16:45:20.703Z,100626.47
2023-05-19T16:48:23.334Z,100638.41
2023-05-19T16:51:25.871Z,100635.97
2023-05-19T16:54:28.937Z,100650.19
2023-05-19T16:57:31.372Z,100637.28
2023-05-19T17:00:34.597Z,100639.19
2023-05-19T17:03:37.442Z,100633.81
2023-05-19T17:06:40.478Z,100643.06
2023-05-19T17:09:46.376Z,100640.13
2023-05-19T17:12:49.144Z,100645.03
2023-05-19T17:15:52.765Z,100645.62
2023-05-19T17:18:56.104Z,100645.19
2023-05-19T17:21:58.554Z,100644.84
2023-05-19T17:25:01.442Z,100647.41
2023-05-19T17:28:03.969Z,100647.16
2023-05-19T17:31:13.835Z,100649.34
2023-05-19T17:34:16.306Z,100652.69
2023-05-19T17:37:23.357Z,100662.97
2023-05-19T17:40:25.998Z,100658.16
2023-05-19T17:43:29.074Z,100662.78
2023-05-19T17:46:34.733Z,100663.94
2023-05-19T17:49:37.595Z,100664.28
2023-05-19T17:52:45.018Z,100660.31
2023-05-19T17:56:00.956Z,100667.75
2023-05-19T17:59:03.597Z,100659.62
2023-05-19T18:02:07.506Z,100663.75
2023-05-19T18:05:11.003Z,100674.44
2023-05-19T18:08:13.795Z,100674.37
2023-05-19T18:11:20.074Z,100674.19
2023-05-19T18:14:25.825Z,100678.31
2023-05-19T18:17:29.557Z,100676.16
2023-05-19T18:20:34.014Z,100679.62
2023-05-19T18:23:37.040Z,100673.16
2023-05-19T18:26:42.065Z,100688.81
2023-05-19T18:29:47.506Z,100696.91
2023-05-19T18:32:50.040Z,100713.59
2023-05-19T18:35:52.788Z,100713.25
2023-05-19T18:38:58.478Z,100713.50
2023-05-19T18:42:03.348Z,100726.66
2023-05-19T18:45:06.581Z,100721.03
2023-05-19T18:48:09.459Z,100725.31
2023-05-19T18:51:14.329Z,100724.78
2023-05-19T18:54:17.153Z,100719.97
2023-05-19T18:57:19.645Z,100721.22
2023-05-19T19:00:26.028Z,100732.72
2023-05-19T19:03:28.790Z,100720.09
2023-05-19T19:06:31.876Z,100720.72
2023-05-19T19:09:34.460Z,100722.81
2023-05-19T19:12:38.937Z,100723.81
2023-05-19T19:15:41.416Z,100713.25
2023-05-19T19:18:44.233Z,100711.28
2023-05-19T19:21:47.107Z,100710.75
2023-05-19T19:24:49.811Z,100713.09
2023-05-19T19:27:52.151Z,100705.72
2023-05-19T19:30:54.799Z,100708.47
2023-05-19T19:34:00.299Z,100719.88
2023-05-19T19:37:03.901Z,100725.31
2023-05-19T19:40:08.734Z,100720.03
2023-05-19T19:43:11.725Z,100721.03
2023-05-19T19:46:14.543Z,100715.00
2023-05-19T19:49:17.448Z,100730.84
2023-05-19T19:52:20.160Z,100729.16
2023-05-19T19:55:25.153Z,100729.31
2023-05-19T19:58:29.763Z,100726.16
2023-05-19T20:01:33.761Z,100725.03
2023-05-19T20:04:36.579Z,100731.94
2023-05-19T20:07:39.014Z,100727.50
2023-05-19T20:10:41.649Z,100727.50
2023-05-19T20:13:44.087Z,100724.87
2023-05-19T20:16:47.209Z,100729.16
2023-05-19T20:19:49.657Z,100721.25
2023-05-19T20:22:54.298Z,100716.62
2023-05-19T20:26:10.906Z,100729.16
2023-05-19T20:29:16.900Z,100725.19
2023-05-19T20:32:19.365Z,100720.66
2023-05-19T20:35:22.710Z,100720.97
2023-05-19T20:38:25.381Z,100727.66
2023-05-19T20:41:28.208Z,100724.94
2023-05-19T20:44:30.859Z,100727.19
2023-05-19T20:47:33.809Z,100727.12
2023-05-19T20:50:39.447Z,100732.28
2023-05-19T20:53:42.252Z,100722.81
2023-05-19T20:56:44.728Z,100729.94
2023-05-19T20:59:47.438Z,100721.41
2023-05-19T21:02:49.862Z,100726.53
2023-05-19T21:05:59.290Z,100735.03
2023-05-19T21:09:04.943Z,100726.44
2023-05-19T21:12:07.758Z,100728.37
2023-05-19T21:15:10.617Z,100730.06
2023-05-19T21:18:13.499Z,100728.91
2023-05-19T21:21:16.020Z,100726.97
2023-05-19T21:24:18.821Z,100727.66
2023-05-19T21:27:21.805Z,100731.66
2023-05-19T21:30:25.341Z,100736.69
2023-05-19T21:33:27.869Z,100733.06
2023-05-19T21:36:30.685Z,100730.56
2023-05-19T21:39:33.123Z,100731.97
2023-05-19T21:42:35.913Z,100733.84
2023-05-19T21:45:38.716Z,100741.31
2023-05-19T21:48:41.444Z,100742.97
2023-05-19T21:51:43.833Z,100748.34
2023-05-19T21:54:48.727Z,100739.44
2023-05-19T21:57:54.049Z,100735.84
2023-05-19T22:00:56.822Z,100738.47
2023-05-19T22:03:59.865Z,100744.59
2023-05-19T22:07:02.608Z,100738.47
2023-05-19T22:10:05.864Z,100738.94
2023-05-19T22:13:08.667Z,100735.06
2023-05-19T22:16:11.614Z,100735.94
2023-05-19T22:19:14.687Z,100730.84
2023-05-19T22:22:17.411Z,100730.88
2023-05-19T22:25:19.874Z,100737.31
2023-05-19T22:28:22.516Z,100742.59
2023-05-19T22:31:28.940Z,100740.84
2023-05-19T22:34:31.673Z,100738.50
2023-05-19T22:37:34.609Z,100744.78
2023-05-19T22:40:37.459Z,100751.03
2023-05-19T22:43:39.915Z,100743.13
2023-05-19T22:46:44.529Z,100743.56
2023-05-19T22:49:47.310Z,100749.81
2023-05-19T22:52:50.232Z,100749.37
2023-05-19T22:55:53.093Z,100749.13
2023-05-19T22:58:56.249Z,100746.88
2023-05-19T23:01:58.692Z,100746.06
2023-05-19T23:05:01.378Z,100739.53
2023-05-19T23:08:03.879Z,100737.59
2023-05-19T23:11:07.273Z,100738.84
2023-05-19T23:14:09.662Z,100731.66
2023-05-19T23:17:12.340Z,100729.41
2023-05-19T23:20:14.871Z,100721.37
2023-05-19T23:23:17.691Z,100722.19
2023-05-19T23:26:20.155Z,100716.25
2023-05-19T23:29:23.293Z,100718.31
2023-05-19T23:32:25.995Z,100711.09
2023-05-19T23:35:28.971Z,100713.31
2023-05-19T23:38:31.384Z,100717.41
2023-05-19T23:41:34.006Z,100709.69
2023-05-19T23:44:36.434Z,100706.62
2023-05-19T23:47:39.332Z,100701.78
2023-05-19T23:50:41.779Z,100706.59
2023-05-19T23:53:46.967Z,100707.44
2023-05-19T23:56:49.379Z,100703.12
2023-05-19T23:59:52.688Z,100706.59
